Goodwood, Louisiana
Current Conditions -  °F | °C
As of 2:15 PM on Friday 31 Oct 2014 (Local Time) from KHZR Reporting Station
Clear Clear  
Wind Chill: 72°   Ceiling: Unl
Heat Index: 72°   Visibility: 10mi
Dew Point: 46°   Wind: 14mph
Humidity: 39%   Direction: 320°NW
Pressure: 30.07"   Gusts: 20mph
Location:  30.6648°N, 91.7944°W
Report Text: KHZR 311915Z AUTO 32012G17KT 10SM CLR 22/08 A3007 RMK AO2 T02210075
Loading
Personal Weather Stations






























Interactive Weather Map
Tropical Storm Tracking
New forecast layout! Learn more

10-Day Weather Forecast

Advertisements
Track Severe Weather on mobile